sensor_id;sensor_type;location;lat;lon;timestamp;P1;durP1;ratioP1;P2;durP2;ratioP2
1987;SDS011;12775;46.994;15.498;2023-02-14T00:01:07;11.92;;;9.86;;
1987;SDS011;12775;46.994;15.498;2023-02-14T00:03:34;15.66;;;10.94;;
1987;SDS011;12775;46.994;15.498;2023-02-14T00:06:07;14.60;;;9.36;;
1987;SDS011;12775;46.994;15.498;2023-02-14T00:08:34;13.40;;;10.20;;
1987;SDS011;12775;46.994;15.498;2023-02-14T00:11:01;17.02;;;11.50;;
1987;SDS011;12775;46.994;15.498;2023-02-14T00:13:27;14.36;;;10.88;;
1987;SDS011;12775;46.994;15.498;2023-02-14T00:15:55;15.86;;;11.86;;
1987;SDS011;12775;46.994;15.498;2023-02-14T00:18:22;25.72;;;15.58;;
1987;SDS011;12775;46.994;15.498;2023-02-14T00:20:49;22.38;;;13.46;;
1987;SDS011;12775;46.994;15.498;2023-02-14T00:23:17;21.80;;;15.32;;
1987;SDS011;12775;46.994;15.498;2023-02-14T00:25:44;18.22;;;13.10;;
1987;SDS011;12775;46.994;15.498;2023-02-14T00:28:11;16.34;;;11.56;;
1987;SDS011;12775;46.994;15.498;2023-02-14T00:30:39;16.98;;;11.70;;
1987;SDS011;12775;46.994;15.498;2023-02-14T00:33:06;14.76;;;11.58;;
1987;SDS011;12775;46.994;15.498;2023-02-14T00:35:36;16.46;;;11.86;;
1987;SDS011;12775;46.994;15.498;2023-02-14T00:38:01;19.08;;;11.72;;
1987;SDS011;12775;46.994;15.498;2023-02-14T00:40:28;17.16;;;11.58;;
1987;SDS011;12775;46.994;15.498;2023-02-14T00:42:56;18.58;;;12.82;;
1987;SDS011;12775;46.994;15.498;2023-02-14T00:45:23;15.74;;;10.78;;
1987;SDS011;12775;46.994;15.498;2023-02-14T00:47:50;18.68;;;11.22;;
1987;SDS011;12775;46.994;15.498;2023-02-14T00:50:18;17.84;;;11.94;;
1987;SDS011;12775;46.994;15.498;2023-02-14T00:52:45;17.80;;;11.60;;
1987;SDS011;12775;46.994;15.498;2023-02-14T00:55:13;19.44;;;10.90;;
1987;SDS011;12775;46.994;15.498;2023-02-14T00:57:40;19.54;;;12.34;;
1987;SDS011;12775;46.994;15.498;2023-02-14T01:00:08;17.32;;;11.72;;
1987;SDS011;12775;46.994;15.498;2023-02-14T01:02:36;20.32;;;13.00;;
1987;SDS011;12775;46.994;15.498;2023-02-14T01:05:03;14.36;;;11.62;;
1987;SDS011;12775;46.994;15.498;2023-02-14T01:07:32;17.98;;;12.72;;
1987;SDS011;12775;46.994;15.498;2023-02-14T01:09:59;17.90;;;11.94;;
1987;SDS011;12775;46.994;15.498;2023-02-14T01:12:27;18.80;;;10.78;;
1987;SDS011;12775;46.994;15.498;2023-02-14T01:14:54;15.20;;;10.66;;
1987;SDS011;12775;46.994;15.498;2023-02-14T01:17:21;16.34;;;11.16;;
1987;SDS011;12775;46.994;15.498;2023-02-14T01:19:51;19.34;;;12.36;;
1987;SDS011;12775;46.994;15.498;2023-02-14T01:22:18;13.90;;;11.12;;
1987;SDS011;12775;46.994;15.498;2023-02-14T01:24:45;16.84;;;12.08;;
1987;SDS011;12775;46.994;15.498;2023-02-14T01:27:13;19.72;;;12.20;;
1987;SDS011;12775;46.994;15.498;2023-02-14T01:29:40;19.86;;;12.32;;
1987;SDS011;12775;46.994;15.498;2023-02-14T01:32:07;17.28;;;12.98;;
1987;SDS011;12775;46.994;15.498;2023-02-14T01:34:35;16.74;;;11.54;;
1987;SDS011;12775;46.994;15.498;2023-02-14T01:37:02;17.54;;;11.52;;
1987;SDS011;12775;46.994;15.498;2023-02-14T01:39:30;18.94;;;12.64;;
1987;SDS011;12775;46.994;15.498;2023-02-14T01:41:57;17.52;;;12.98;;
1987;SDS011;12775;46.994;15.498;2023-02-14T01:44:57;21.10;;;12.12;;
1987;SDS011;12775;46.994;15.498;2023-02-14T01:47:21;20.84;;;12.84;;
1987;SDS011;12775;46.994;15.498;2023-02-14T01:49:50;17.36;;;12.80;;
1987;SDS011;12775;46.994;15.498;2023-02-14T01:52:48;47.06;;;26.68;;
1987;SDS011;12775;46.994;15.498;2023-02-14T01:54:59;34.84;;;20.24;;
1987;SDS011;12775;46.994;15.498;2023-02-14T01:57:26;25.20;;;16.22;;
1987;SDS011;12775;46.994;15.498;2023-02-14T01:59:54;28.66;;;16.72;;
1987;SDS011;12775;46.994;15.498;2023-02-14T02:02:20;25.74;;;16.70;;
1987;SDS011;12775;46.994;15.498;2023-02-14T02:04:46;22.34;;;14.14;;
1987;SDS011;12775;46.994;15.498;2023-02-14T02:07:16;22.12;;;13.16;;
1987;SDS011;12775;46.994;15.498;2023-02-14T02:09:43;23.28;;;12.56;;
1987;SDS011;12775;46.994;15.498;2023-02-14T02:12:10;26.24;;;15.10;;
1987;SDS011;12775;46.994;15.498;2023-02-14T02:14:37;22.10;;;14.10;;
1987;SDS011;12775;46.994;15.498;2023-02-14T02:17:10;28.84;;;13.82;;
1987;SDS011;12775;46.994;15.498;2023-02-14T02:20:54;24.76;;;15.18;;
1987;SDS011;12775;46.994;15.498;2023-02-14T02:33:43;21.60;;;14.28;;
1987;SDS011;12775;46.994;15.498;2023-02-14T02:36:17;20.18;;;15.78;;
1987;SDS011;12775;46.994;15.498;2023-02-14T02:38:52;27.84;;;15.36;;
1987;SDS011;12775;46.994;15.498;2023-02-14T02:41:52;19.34;;;15.16;;
1987;SDS011;12775;46.994;15.498;2023-02-14T02:46:39;22.04;;;15.22;;
1987;SDS011;12775;46.994;15.498;2023-02-14T02:49:14;22.48;;;14.78;;
1987;SDS011;12775;46.994;15.498;2023-02-14T02:51:47;24.08;;;15.30;;
1987;SDS011;12775;46.994;15.498;2023-02-14T02:54:19;19.42;;;13.88;;
1987;SDS011;12775;46.994;15.498;2023-02-14T02:56:49;22.78;;;13.52;;
1987;SDS011;12775;46.994;15.498;2023-02-14T02:59:20;14.28;;;11.44;;
1987;SDS011;12775;46.994;15.498;2023-02-14T03:01:53;20.68;;;13.52;;
1987;SDS011;12775;46.994;15.498;2023-02-14T03:04:18;16.24;;;12.40;;
1987;SDS011;12775;46.994;15.498;2023-02-14T03:06:51;18.56;;;12.32;;
1987;SDS011;12775;46.994;15.498;2023-02-14T03:09:51;18.74;;;12.84;;
1987;SDS011;12775;46.994;15.498;2023-02-14T03:12:23;24.30;;;12.78;;
1987;SDS011;12775;46.994;15.498;2023-02-14T03:14:55;18.54;;;11.78;;
1987;SDS011;12775;46.994;15.498;2023-02-14T03:17:29;18.76;;;12.24;;
1987;SDS011;12775;46.994;15.498;2023-02-14T03:20:09;20.90;;;12.42;;
1987;SDS011;12775;46.994;15.498;2023-02-14T03:22:46;17.90;;;11.84;;
1987;SDS011;12775;46.994;15.498;2023-02-14T03:25:16;16.64;;;10.98;;
1987;SDS011;12775;46.994;15.498;2023-02-14T03:27:45;17.88;;;12.56;;
1987;SDS011;12775;46.994;15.498;2023-02-14T03:30:16;14.68;;;11.64;;
1987;SDS011;12775;46.994;15.498;2023-02-14T03:32:42;17.82;;;12.92;;
1987;SDS011;12775;46.994;15.498;2023-02-14T03:35:11;16.94;;;11.52;;
1987;SDS011;12775;46.994;15.498;2023-02-14T03:37:40;16.56;;;10.44;;
1987;SDS011;12775;46.994;15.498;2023-02-14T03:40:09;16.76;;;11.74;;
1987;SDS011;12775;46.994;15.498;2023-02-14T03:42:37;17.16;;;12.26;;
1987;SDS011;12775;46.994;15.498;2023-02-14T03:45:06;18.78;;;12.22;;
1987;SDS011;12775;46.994;15.498;2023-02-14T03:47:34;17.56;;;11.50;;
1987;SDS011;12775;46.994;15.498;2023-02-14T03:50:03;21.56;;;12.80;;
1987;SDS011;12775;46.994;15.498;2023-02-14T03:52:28;15.54;;;12.02;;
1987;SDS011;12775;46.994;15.498;2023-02-14T03:54:56;17.82;;;12.08;;
1987;SDS011;12775;46.994;15.498;2023-02-14T03:57:24;25.56;;;13.90;;
1987;SDS011;12775;46.994;15.498;2023-02-14T03:59:54;19.26;;;13.76;;
1987;SDS011;12775;46.994;15.498;2023-02-14T04:02:26;20.74;;;12.18;;
1987;SDS011;12775;46.994;15.498;2023-02-14T04:04:53;17.90;;;12.64;;
1987;SDS011;12775;46.994;15.498;2023-02-14T04:07:21;18.02;;;12.40;;
1987;SDS011;12775;46.994;15.498;2023-02-14T04:09:47;19.82;;;13.80;;
1987;SDS011;12775;46.994;15.498;2023-02-14T04:12:15;21.02;;;14.26;;
1987;SDS011;12775;46.994;15.498;2023-02-14T04:14:42;17.96;;;12.76;;
1987;SDS011;12775;46.994;15.498;2023-02-14T04:17:09;20.32;;;13.24;;
1987;SDS011;12775;46.994;15.498;2023-02-14T04:19:43;16.18;;;12.92;;
1987;SDS011;12775;46.994;15.498;2023-02-14T04:22:11;19.20;;;12.74;;
1987;SDS011;12775;46.994;15.498;2023-02-14T04:24:38;19.54;;;13.06;;
1987;SDS011;12775;46.994;15.498;2023-02-14T04:27:06;18.38;;;12.30;;
1987;SDS011;12775;46.994;15.498;2023-02-14T04:29:41;19.92;;;12.82;;
1987;SDS011;12775;46.994;15.498;2023-02-14T04:32:09;20.72;;;12.68;;
1987;SDS011;12775;46.994;15.498;2023-02-14T04:34:35;25.50;;;14.14;;
1987;SDS011;12775;46.994;15.498;2023-02-14T04:37:02;16.36;;;12.90;;
1987;SDS011;12775;46.994;15.498;2023-02-14T04:39:29;20.22;;;13.32;;
1987;SDS011;12775;46.994;15.498;2023-02-14T04:41:56;22.86;;;12.88;;
1987;SDS011;12775;46.994;15.498;2023-02-14T04:44:24;19.92;;;13.30;;
1987;SDS011;12775;46.994;15.498;2023-02-14T04:46:51;18.62;;;12.18;;
1987;SDS011;12775;46.994;15.498;2023-02-14T04:49:19;22.90;;;13.06;;
1987;SDS011;12775;46.994;15.498;2023-02-14T04:51:46;23.62;;;14.76;;
1987;SDS011;12775;46.994;15.498;2023-02-14T04:54:13;20.64;;;12.74;;
1987;SDS011;12775;46.994;15.498;2023-02-14T04:56:41;21.14;;;13.84;;
1987;SDS011;12775;46.994;15.498;2023-02-14T04:59:07;21.42;;;13.42;;
1987;SDS011;12775;46.994;15.498;2023-02-14T05:01:34;22.88;;;13.32;;
1987;SDS011;12775;46.994;15.498;2023-02-14T05:04:01;17.04;;;14.18;;
1987;SDS011;12775;46.994;15.498;2023-02-14T05:06:27;19.20;;;13.02;;
1987;SDS011;12775;46.994;15.498;2023-02-14T05:08:54;18.18;;;13.38;;
1987;SDS011;12775;46.994;15.498;2023-02-14T05:11:22;21.86;;;12.10;;
1987;SDS011;12775;46.994;15.498;2023-02-14T05:13:49;19.00;;;12.52;;
1987;SDS011;12775;46.994;15.498;2023-02-14T05:16:17;17.08;;;12.06;;
1987;SDS011;12775;46.994;15.498;2023-02-14T05:18:44;19.40;;;11.98;;
1987;SDS011;12775;46.994;15.498;2023-02-14T05:21:11;12.88;;;11.38;;
1987;SDS011;12775;46.994;15.498;2023-02-14T05:23:39;21.26;;;12.84;;
1987;SDS011;12775;46.994;15.498;2023-02-14T05:26:06;18.34;;;12.48;;
1987;SDS011;12775;46.994;15.498;2023-02-14T05:28:34;19.08;;;11.44;;
1987;SDS011;12775;46.994;15.498;2023-02-14T05:31:01;18.70;;;12.30;;
1987;SDS011;12775;46.994;15.498;2023-02-14T05:33:28;22.82;;;16.06;;
1987;SDS011;12775;46.994;15.498;2023-02-14T05:35:57;16.44;;;13.36;;
1987;SDS011;12775;46.994;15.498;2023-02-14T05:38:22;15.76;;;12.82;;
1987;SDS011;12775;46.994;15.498;2023-02-14T05:40:49;39.68;;;13.94;;
1987;SDS011;12775;46.994;15.498;2023-02-14T05:43:15;20.84;;;14.46;;
1987;SDS011;12775;46.994;15.498;2023-02-14T05:45:42;29.26;;;18.88;;
1987;SDS011;12775;46.994;15.498;2023-02-14T05:48:09;22.16;;;16.08;;
1987;SDS011;12775;46.994;15.498;2023-02-14T05:50:36;29.88;;;17.08;;
1987;SDS011;12775;46.994;15.498;2023-02-14T05:53:03;21.72;;;15.82;;
1987;SDS011;12775;46.994;15.498;2023-02-14T05:55:31;25.88;;;16.54;;
1987;SDS011;12775;46.994;15.498;2023-02-14T05:57:58;26.02;;;13.34;;
1987;SDS011;12775;46.994;15.498;2023-02-14T06:00:25;17.30;;;13.00;;
1987;SDS011;12775;46.994;15.498;2023-02-14T06:02:52;22.28;;;14.08;;
1987;SDS011;12775;46.994;15.498;2023-02-14T06:05:18;18.82;;;13.58;;
1987;SDS011;12775;46.994;15.498;2023-02-14T06:07:47;26.74;;;14.88;;
1987;SDS011;12775;46.994;15.498;2023-02-14T06:10:17;21.92;;;14.66;;
1987;SDS011;12775;46.994;15.498;2023-02-14T06:12:44;30.44;;;19.82;;
1987;SDS011;12775;46.994;15.498;2023-02-14T06:15:12;21.66;;;15.34;;
1987;SDS011;12775;46.994;15.498;2023-02-14T06:17:39;20.08;;;13.54;;
1987;SDS011;12775;46.994;15.498;2023-02-14T06:20:07;20.12;;;14.64;;
1987;SDS011;12775;46.994;15.498;2023-02-14T06:22:36;21.36;;;15.56;;
1987;SDS011;12775;46.994;15.498;2023-02-14T06:25:03;21.46;;;14.22;;
1987;SDS011;12775;46.994;15.498;2023-02-14T06:27:30;24.38;;;14.82;;
1987;SDS011;12775;46.994;15.498;2023-02-14T06:29:57;20.88;;;15.76;;
1987;SDS011;12775;46.994;15.498;2023-02-14T06:32:24;22.44;;;15.54;;
1987;SDS011;12775;46.994;15.498;2023-02-14T06:34:52;22.38;;;16.74;;
1987;SDS011;12775;46.994;15.498;2023-02-14T06:37:19;46.40;;;24.20;;
1987;SDS011;12775;46.994;15.498;2023-02-14T06:39:47;40.86;;;23.10;;
1987;SDS011;12775;46.994;15.498;2023-02-14T06:42:14;29.36;;;22.76;;
1987;SDS011;12775;46.994;15.498;2023-02-14T06:44:41;31.14;;;22.12;;
1987;SDS011;12775;46.994;15.498;2023-02-14T06:47:09;29.66;;;18.14;;
1987;SDS011;12775;46.994;15.498;2023-02-14T06:49:36;27.82;;;16.48;;
1987;SDS011;12775;46.994;15.498;2023-02-14T06:52:03;30.58;;;17.62;;
1987;SDS011;12775;46.994;15.498;2023-02-14T06:54:31;29.64;;;21.46;;
1987;SDS011;12775;46.994;15.498;2023-02-14T06:56:58;30.10;;;18.34;;
1987;SDS011;12775;46.994;15.498;2023-02-14T06:59:26;29.82;;;20.12;;
1987;SDS011;12775;46.994;15.498;2023-02-14T07:01:53;29.62;;;20.54;;
1987;SDS011;12775;46.994;15.498;2023-02-14T07:04:20;24.84;;;19.64;;
1987;SDS011;12775;46.994;15.498;2023-02-14T07:06:48;31.10;;;20.68;;
1987;SDS011;12775;46.994;15.498;2023-02-14T07:09:15;31.10;;;19.12;;
1987;SDS011;12775;46.994;15.498;2023-02-14T07:11:44;25.22;;;17.94;;
1987;SDS011;12775;46.994;15.498;2023-02-14T07:14:11;24.64;;;18.62;;
1987;SDS011;12775;46.994;15.498;2023-02-14T07:16:38;23.28;;;16.42;;
1987;SDS011;12775;46.994;15.498;2023-02-14T07:19:05;23.94;;;17.64;;
1987;SDS011;12775;46.994;15.498;2023-02-14T07:21:33;28.88;;;17.82;;
1987;SDS011;12775;46.994;15.498;2023-02-14T07:24:00;19.58;;;16.60;;
1987;SDS011;12775;46.994;15.498;2023-02-14T07:26:28;31.18;;;19.30;;
1987;SDS011;12775;46.994;15.498;2023-02-14T07:28:55;24.44;;;18.66;;
1987;SDS011;12775;46.994;15.498;2023-02-14T07:31:22;21.16;;;16.60;;
1987;SDS011;12775;46.994;15.498;2023-02-14T07:33:50;24.98;;;18.04;;
1987;SDS011;12775;46.994;15.498;2023-02-14T07:36:17;22.76;;;16.58;;
1987;SDS011;12775;46.994;15.498;2023-02-14T07:38:44;24.38;;;16.22;;
1987;SDS011;12775;46.994;15.498;2023-02-14T07:41:12;20.80;;;15.54;;
1987;SDS011;12775;46.994;15.498;2023-02-14T07:43:38;20.80;;;15.68;;
1987;SDS011;12775;46.994;15.498;2023-02-14T07:46:05;21.88;;;18.06;;
1987;SDS011;12775;46.994;15.498;2023-02-14T07:48:31;21.30;;;15.54;;
1987;SDS011;12775;46.994;15.498;2023-02-14T07:50:58;18.32;;;16.18;;
1987;SDS011;12775;46.994;15.498;2023-02-14T07:53:25;21.42;;;15.58;;
1987;SDS011;12775;46.994;15.498;2023-02-14T07:55:53;17.32;;;13.50;;
1987;SDS011;12775;46.994;15.498;2023-02-14T07:58:20;16.44;;;13.26;;
1987;SDS011;12775;46.994;15.498;2023-02-14T08:00:48;16.10;;;12.76;;
1987;SDS011;12775;46.994;15.498;2023-02-14T08:03:15;19.84;;;14.56;;
1987;SDS011;12775;46.994;15.498;2023-02-14T08:05:42;20.40;;;13.92;;
1987;SDS011;12775;46.994;15.498;2023-02-14T08:08:08;18.16;;;15.78;;
1987;SDS011;12775;46.994;15.498;2023-02-14T08:10:36;21.72;;;14.38;;
1987;SDS011;12775;46.994;15.498;2023-02-14T08:13:03;20.26;;;14.52;;
1987;SDS011;12775;46.994;15.498;2023-02-14T08:15:31;23.76;;;15.36;;
1987;SDS011;12775;46.994;15.498;2023-02-14T08:18:03;25.08;;;14.76;;
1987;SDS011;12775;46.994;15.498;2023-02-14T08:20:30;22.20;;;16.28;;
1987;SDS011;12775;46.994;15.498;2023-02-14T08:22:57;19.04;;;13.78;;
1987;SDS011;12775;46.994;15.498;2023-02-14T08:25:26;22.26;;;13.94;;
1987;SDS011;12775;46.994;15.498;2023-02-14T08:27:53;15.52;;;13.68;;
1987;SDS011;12775;46.994;15.498;2023-02-14T08:30:22;31.38;;;16.08;;
1987;SDS011;12775;46.994;15.498;2023-02-14T08:32:49;18.14;;;13.18;;
1987;SDS011;12775;46.994;15.498;2023-02-14T08:35:17;20.02;;;15.96;;
1987;SDS011;12775;46.994;15.498;2023-02-14T08:37:44;21.96;;;17.14;;
1987;SDS011;12775;46.994;15.498;2023-02-14T08:40:12;27.86;;;17.86;;
1987;SDS011;12775;46.994;15.498;2023-02-14T08:42:39;19.52;;;15.20;;
1987;SDS011;12775;46.994;15.498;2023-02-14T08:45:06;26.20;;;15.32;;
1987;SDS011;12775;46.994;15.498;2023-02-14T08:47:34;20.08;;;15.52;;
1987;SDS011;12775;46.994;15.498;2023-02-14T08:50:02;19.98;;;17.06;;
1987;SDS011;12775;46.994;15.498;2023-02-14T08:52:29;17.92;;;16.02;;
1987;SDS011;12775;46.994;15.498;2023-02-14T08:54:56;17.48;;;15.30;;
1987;SDS011;12775;46.994;15.498;2023-02-14T08:57:23;18.70;;;15.32;;
1987;SDS011;12775;46.994;15.498;2023-02-14T08:59:50;17.34;;;14.84;;
1987;SDS011;12775;46.994;15.498;2023-02-14T09:02:17;21.42;;;16.20;;
1987;SDS011;12775;46.994;15.498;2023-02-14T09:04:45;16.74;;;14.08;;
1987;SDS011;12775;46.994;15.498;2023-02-14T09:07:12;18.12;;;16.20;;
1987;SDS011;12775;46.994;15.498;2023-02-14T09:09:39;17.92;;;14.24;;
1987;SDS011;12775;46.994;15.498;2023-02-14T09:12:07;19.48;;;14.36;;
1987;SDS011;12775;46.994;15.498;2023-02-14T09:14:35;16.94;;;13.16;;
1987;SDS011;12775;46.994;15.498;2023-02-14T09:17:02;20.66;;;14.54;;
1987;SDS011;12775;46.994;15.498;2023-02-14T09:19:28;17.42;;;14.46;;
1987;SDS011;12775;46.994;15.498;2023-02-14T09:21:55;19.08;;;15.10;;
1987;SDS011;12775;46.994;15.498;2023-02-14T09:24:23;16.80;;;13.76;;
1987;SDS011;12775;46.994;15.498;2023-02-14T09:26:50;16.26;;;14.12;;
1987;SDS011;12775;46.994;15.498;2023-02-14T09:29:18;16.46;;;13.52;;
1987;SDS011;12775;46.994;15.498;2023-02-14T09:31:45;15.48;;;13.22;;
1987;SDS011;12775;46.994;15.498;2023-02-14T09:34:12;15.68;;;13.46;;
1987;SDS011;12775;46.994;15.498;2023-02-14T09:36:40;21.20;;;13.90;;
1987;SDS011;12775;46.994;15.498;2023-02-14T09:39:13;14.52;;;13.02;;
1987;SDS011;12775;46.994;15.498;2023-02-14T09:41:49;15.24;;;13.62;;
1987;SDS011;12775;46.994;15.498;2023-02-14T09:44:19;22.38;;;15.06;;
1987;SDS011;12775;46.994;15.498;2023-02-14T09:46:49;21.70;;;15.76;;
1987;SDS011;12775;46.994;15.498;2023-02-14T09:49:16;17.64;;;13.86;;
1987;SDS011;12775;46.994;15.498;2023-02-14T09:51:44;13.96;;;12.52;;
1987;SDS011;12775;46.994;15.498;2023-02-14T09:54:11;16.72;;;12.86;;
1987;SDS011;12775;46.994;15.498;2023-02-14T09:59:49;15.72;;;14.06;;
1987;SDS011;12775;46.994;15.498;2023-02-14T10:02:14;20.22;;;14.50;;
1987;SDS011;12775;46.994;15.498;2023-02-14T10:04:55;17.46;;;15.14;;
1987;SDS011;12775;46.994;15.498;2023-02-14T10:07:26;16.14;;;14.06;;
1987;SDS011;12775;46.994;15.498;2023-02-14T10:10:02;19.08;;;14.06;;
1987;SDS011;12775;46.994;15.498;2023-02-14T10:12:49;17.74;;;13.30;;
1987;SDS011;12775;46.994;15.498;2023-02-14T10:15:22;16.66;;;13.62;;
1987;SDS011;12775;46.994;15.498;2023-02-14T10:17:52;18.62;;;14.16;;
1987;SDS011;12775;46.994;15.498;2023-02-14T10:20:21;15.50;;;13.02;;
1987;SDS011;12775;46.994;15.498;2023-02-14T10:22:50;17.14;;;13.80;;
1987;SDS011;12775;46.994;15.498;2023-02-14T10:25:40;17.84;;;14.60;;
1987;SDS011;12775;46.994;15.498;2023-02-14T10:28:11;14.36;;;12.84;;
1987;SDS011;12775;46.994;15.498;2023-02-14T10:30:37;18.14;;;14.92;;
1987;SDS011;12775;46.994;15.498;2023-02-14T10:33:14;15.58;;;13.56;;
1987;SDS011;12775;46.994;15.498;2023-02-14T10:35:47;14.62;;;13.02;;
1987;SDS011;12775;46.994;15.498;2023-02-14T10:41:01;17.18;;;14.42;;
1987;SDS011;12775;46.994;15.498;2023-02-14T10:43:32;15.74;;;12.44;;
1987;SDS011;12775;46.994;15.498;2023-02-14T10:46:06;15.92;;;13.54;;
1987;SDS011;12775;46.994;15.498;2023-02-14T10:48:50;19.04;;;13.94;;
1987;SDS011;12775;46.994;15.498;2023-02-14T10:51:20;17.40;;;13.66;;
1987;SDS011;12775;46.994;15.498;2023-02-14T10:53:52;16.54;;;13.04;;
1987;SDS011;12775;46.994;15.498;2023-02-14T10:56:17;16.88;;;12.64;;
1987;SDS011;12775;46.994;15.498;2023-02-14T10:58:46;15.58;;;13.34;;
1987;SDS011;12775;46.994;15.498;2023-02-14T11:01:14;17.00;;;13.34;;
1987;SDS011;12775;46.994;15.498;2023-02-14T11:03:50;18.68;;;14.80;;
1987;SDS011;12775;46.994;15.498;2023-02-14T11:06:08;15.70;;;13.78;;
1987;SDS011;12775;46.994;15.498;2023-02-14T11:08:35;17.68;;;14.92;;
1987;SDS011;12775;46.994;15.498;2023-02-14T11:11:09;18.78;;;15.16;;
1987;SDS011;12775;46.994;15.498;2023-02-14T11:13:35;18.32;;;13.68;;
1987;SDS011;12775;46.994;15.498;2023-02-14T11:16:02;15.52;;;12.90;;
1987;SDS011;12775;46.994;15.498;2023-02-14T11:18:29;16.56;;;13.50;;
1987;SDS011;12775;46.994;15.498;2023-02-14T11:20:58;16.64;;;14.96;;
1987;SDS011;12775;46.994;15.498;2023-02-14T11:23:42;15.84;;;13.60;;
1987;SDS011;12775;46.994;15.498;2023-02-14T11:26:20;16.00;;;12.88;;
1987;SDS011;12775;46.994;15.498;2023-02-14T11:28:49;14.70;;;13.04;;
1987;SDS011;12775;46.994;15.498;2023-02-14T11:31:20;14.60;;;13.06;;
1987;SDS011;12775;46.994;15.498;2023-02-14T11:33:41;16.70;;;14.96;;
1987;SDS011;12775;46.994;15.498;2023-02-14T11:36:12;14.58;;;13.08;;
1987;SDS011;12775;46.994;15.498;2023-02-14T11:38:38;15.26;;;13.62;;
1987;SDS011;12775;46.994;15.498;2023-02-14T11:41:07;16.02;;;14.16;;
1987;SDS011;12775;46.994;15.498;2023-02-14T11:43:35;16.42;;;12.90;;
1987;SDS011;12775;46.994;15.498;2023-02-14T11:46:04;14.52;;;13.00;;
1987;SDS011;12775;46.994;15.498;2023-02-14T11:48:31;14.32;;;12.94;;
1987;SDS011;12775;46.994;15.498;2023-02-14T11:51:02;18.06;;;14.94;;
1987;SDS011;12775;46.994;15.498;2023-02-14T11:53:36;19.26;;;14.92;;
1987;SDS011;12775;46.994;15.498;2023-02-14T11:56:00;21.68;;;16.80;;
1987;SDS011;12775;46.994;15.498;2023-02-14T11:58:30;15.68;;;14.14;;
1987;SDS011;12775;46.994;15.498;2023-02-14T12:00:56;15.08;;;13.46;;
1987;SDS011;12775;46.994;15.498;2023-02-14T12:03:23;17.86;;;15.74;;
1987;SDS011;12775;46.994;15.498;2023-02-14T12:05:51;18.34;;;15.32;;
1987;SDS011;12775;46.994;15.498;2023-02-14T12:08:22;20.48;;;14.60;;
1987;SDS011;12775;46.994;15.498;2023-02-14T12:10:45;15.86;;;14.26;;
1987;SDS011;12775;46.994;15.498;2023-02-14T12:13:21;18.88;;;15.32;;
1987;SDS011;12775;46.994;15.498;2023-02-14T12:15:52;15.56;;;13.42;;
1987;SDS011;12775;46.994;15.498;2023-02-14T12:18:24;16.78;;;14.14;;
1987;SDS011;12775;46.994;15.498;2023-02-14T12:21:18;17.06;;;14.72;;
1987;SDS011;12775;46.994;15.498;2023-02-14T12:26:26;16.64;;;13.54;;
1987;SDS011;12775;46.994;15.498;2023-02-14T12:29:00;19.34;;;15.40;;
1987;SDS011;12775;46.994;15.498;2023-02-14T12:31:27;18.32;;;14.74;;
1987;SDS011;12775;46.994;15.498;2023-02-14T12:33:54;16.10;;;14.38;;
1987;SDS011;12775;46.994;15.498;2023-02-14T12:36:32;18.50;;;15.12;;
1987;SDS011;12775;46.994;15.498;2023-02-14T12:39:13;16.04;;;14.36;;
1987;SDS011;12775;46.994;15.498;2023-02-14T12:41:47;20.08;;;15.20;;
1987;SDS011;12775;46.994;15.498;2023-02-14T12:46:56;17.20;;;15.30;;
1987;SDS011;12775;46.994;15.498;2023-02-14T12:49:37;15.52;;;13.92;;
1987;SDS011;12775;46.994;15.498;2023-02-14T12:52:19;16.72;;;14.28;;
1987;SDS011;12775;46.994;15.498;2023-02-14T12:57:43;18.26;;;15.02;;
1987;SDS011;12775;46.994;15.498;2023-02-14T13:00:20;18.50;;;14.48;;
1987;SDS011;12775;46.994;15.498;2023-02-14T13:08:14;15.96;;;13.40;;
1987;SDS011;12775;46.994;15.498;2023-02-14T13:10:49;15.48;;;13.72;;
1987;SDS011;12775;46.994;15.498;2023-02-14T13:13:25;14.36;;;12.88;;
1987;SDS011;12775;46.994;15.498;2023-02-14T13:18:38;16.10;;;13.32;;
1987;SDS011;12775;46.994;15.498;2023-02-14T13:21:05;16.34;;;13.26;;
1987;SDS011;12775;46.994;15.498;2023-02-14T13:23:33;15.64;;;12.58;;
1987;SDS011;12775;46.994;15.498;2023-02-14T13:26:15;15.40;;;13.34;;
1987;SDS011;12775;46.994;15.498;2023-02-14T13:28:54;17.72;;;14.00;;
1987;SDS011;12775;46.994;15.498;2023-02-14T13:31:21;18.54;;;14.96;;
1987;SDS011;12775;46.994;15.498;2023-02-14T13:33:51;16.74;;;13.26;;
1987;SDS011;12775;46.994;15.498;2023-02-14T13:36:18;15.16;;;13.56;;
1987;SDS011;12775;46.994;15.498;2023-02-14T13:38:48;16.00;;;13.40;;
1987;SDS011;12775;46.994;15.498;2023-02-14T13:41:14;19.40;;;14.32;;
1987;SDS011;12775;46.994;15.498;2023-02-14T13:43:45;21.92;;;14.06;;
1987;SDS011;12775;46.994;15.498;2023-02-14T13:46:13;15.40;;;13.84;;
1987;SDS011;12775;46.994;15.498;2023-02-14T13:48:53;17.86;;;14.58;;
1987;SDS011;12775;46.994;15.498;2023-02-14T13:51:11;14.74;;;13.10;;
1987;SDS011;12775;46.994;15.498;2023-02-14T13:53:39;16.16;;;14.28;;
1987;SDS011;12775;46.994;15.498;2023-02-14T13:58:58;20.12;;;16.34;;
1987;SDS011;12775;46.994;15.498;2023-02-14T14:01:34;16.04;;;14.16;;
1987;SDS011;12775;46.994;15.498;2023-02-14T14:04:09;19.30;;;15.74;;
1987;SDS011;12775;46.994;15.498;2023-02-14T14:09:12;15.22;;;13.64;;
1987;SDS011;12775;46.994;15.498;2023-02-14T14:11:47;16.86;;;13.00;;
1987;SDS011;12775;46.994;15.498;2023-02-14T14:14:25;15.74;;;13.58;;
1987;SDS011;12775;46.994;15.498;2023-02-14T14:16:56;16.06;;;13.18;;
1987;SDS011;12775;46.994;15.498;2023-02-14T14:22:10;14.56;;;12.74;;
1987;SDS011;12775;46.994;15.498;2023-02-14T14:24:38;16.72;;;13.54;;
1987;SDS011;12775;46.994;15.498;2023-02-14T14:27:13;16.14;;;13.20;;
1987;SDS011;12775;46.994;15.498;2023-02-14T14:29:46;14.56;;;13.16;;
1987;SDS011;12775;46.994;15.498;2023-02-14T14:32:18;14.54;;;13.00;;
1987;SDS011;12775;46.994;15.498;2023-02-14T14:34:48;14.52;;;13.06;;
1987;SDS011;12775;46.994;15.498;2023-02-14T14:37:16;14.94;;;12.32;;
1987;SDS011;12775;46.994;15.498;2023-02-14T14:39:42;14.80;;;11.90;;
1987;SDS011;12775;46.994;15.498;2023-02-14T14:42:12;16.80;;;13.34;;
1987;SDS011;12775;46.994;15.498;2023-02-14T14:44:44;14.46;;;12.88;;
1987;SDS011;12775;46.994;15.498;2023-02-14T14:47:18;19.26;;;14.32;;
1987;SDS011;12775;46.994;15.498;2023-02-14T14:49:43;13.46;;;12.06;;
1987;SDS011;12775;46.994;15.498;2023-02-14T14:52:43;15.86;;;12.88;;
1987;SDS011;12775;46.994;15.498;2023-02-14T14:54:56;18.04;;;13.62;;
1987;SDS011;12775;46.994;15.498;2023-02-14T14:57:23;14.12;;;12.32;;
1987;SDS011;12775;46.994;15.498;2023-02-14T15:00:02;14.74;;;13.24;;
1987;SDS011;12775;46.994;15.498;2023-02-14T15:02:20;17.26;;;12.04;;
1987;SDS011;12775;46.994;15.498;2023-02-14T15:04:47;16.84;;;13.22;;
1987;SDS011;12775;46.994;15.498;2023-02-14T15:07:23;13.76;;;11.26;;
1987;SDS011;12775;46.994;15.498;2023-02-14T15:09:50;17.88;;;13.36;;
1987;SDS011;12775;46.994;15.498;2023-02-14T15:12:19;18.12;;;12.40;;
1987;SDS011;12775;46.994;15.498;2023-02-14T15:14:50;15.06;;;12.58;;
1987;SDS011;12775;46.994;15.498;2023-02-14T15:17:24;15.10;;;12.38;;